createdAt,value
2022-10-13T00:01:14.799Z,20.40
2022-10-13T00:03:42.740Z,18.20
2022-10-13T00:06:11.614Z,17.50
2022-10-13T00:08:39.491Z,22.60
2022-10-13T00:11:16.774Z,20.07
2022-10-13T00:13:44.646Z,17.67
2022-10-13T00:16:14.434Z,20.98
2022-10-13T00:18:42.204Z,17.00
2022-10-13T00:21:20.196Z,20.27
2022-10-13T00:23:47.850Z,15.50
2022-10-13T00:26:17.968Z,19.00
2022-10-13T00:28:49.752Z,18.00
2022-10-13T00:31:26.404Z,22.67
2022-10-13T00:33:54.259Z,20.38
2022-10-13T00:36:23.360Z,17.50
2022-10-13T00:38:53.005Z,17.00
2022-10-13T00:41:21.028Z,20.60
2022-10-13T00:44:05.293Z,18.87
2022-10-13T00:46:37.567Z,15.93
2022-10-13T00:49:13.139Z,22.13
2022-10-13T00:51:44.900Z,15.50
2022-10-13T00:54:18.635Z,16.60
2022-10-13T00:56:46.953Z,18.23
2022-10-13T00:59:29.025Z,15.60
2022-10-13T01:01:58.990Z,17.23
2022-10-13T01:04:50.281Z,14.83
2022-10-13T01:07:19.195Z,13.67
2022-10-13T01:09:47.262Z,17.83
2022-10-13T01:12:41.906Z,17.57
2022-10-13T01:15:26.561Z,13.17
2022-10-13T01:18:28.101Z,15.67
2022-10-13T01:21:46.752Z,16.00
2022-10-13T01:24:38.746Z,16.20
2022-10-13T01:27:46.016Z,14.60
2022-10-13T01:30:19.640Z,17.97
2022-10-13T01:33:20.507Z,16.37
2022-10-13T01:36:11.578Z,22.07
2022-10-13T01:38:55.241Z,16.30
2022-10-13T01:41:39.431Z,19.83
2022-10-13T01:44:24.512Z,20.13
2022-10-13T01:46:53.581Z,14.27
2022-10-13T01:49:26.786Z,17.03
2022-10-13T01:51:56.642Z,15.80
2022-10-13T01:54:23.533Z,16.70
2022-10-13T01:56:55.254Z,17.43
2022-10-13T01:59:24.580Z,18.17
2022-10-13T02:02:00.245Z,19.20
2022-10-13T02:04:56.859Z,20.03
2022-10-13T02:08:07.724Z,21.70
2022-10-13T02:10:58.674Z,18.27
2022-10-13T02:13:28.586Z,15.43
2022-10-13T02:15:59.301Z,16.90
2022-10-13T02:18:35.265Z,14.63
2022-10-13T02:21:03.652Z,20.23
2022-10-13T02:23:31.025Z,23.77
2022-10-13T02:25:59.858Z,20.63
2022-10-13T02:28:28.380Z,22.80
2022-10-13T02:30:55.315Z,15.13
2022-10-13T02:33:22.362Z,16.10
2022-10-13T02:35:49.275Z,21.10
2022-10-13T02:38:16.136Z,16.10
2022-10-13T02:40:43.109Z,18.00
2022-10-13T02:43:10.043Z,21.33
2022-10-13T02:45:36.984Z,19.00
2022-10-13T02:48:04.008Z,21.53
2022-10-13T02:50:30.877Z,19.77
2022-10-13T02:52:57.838Z,23.27
2022-10-13T02:55:24.798Z,15.83
2022-10-13T02:57:51.733Z,24.17
2022-10-13T03:00:18.877Z,16.83
2022-10-13T03:02:45.792Z,21.17
2022-10-13T03:05:12.843Z,26.07
2022-10-13T03:07:39.779Z,20.97
2022-10-13T03:10:07.128Z,19.47
2022-10-13T03:12:34.166Z,21.03
2022-10-13T03:15:01.172Z,16.90
2022-10-13T03:17:28.158Z,25.90
2022-10-13T03:19:55.165Z,17.63
2022-10-13T03:22:22.497Z,17.57
2022-10-13T03:24:49.660Z,21.70
2022-10-13T03:27:16.560Z,26.00
2022-10-13T03:29:43.679Z,23.73
2022-10-13T03:32:10.590Z,24.00
2022-10-13T03:34:37.564Z,22.57
2022-10-13T03:37:04.631Z,18.40
2022-10-13T03:39:31.532Z,22.57
2022-10-13T03:41:58.619Z,25.43
2022-10-13T03:44:25.702Z,21.87
2022-10-13T03:46:52.598Z,20.03
2022-10-13T03:49:19.529Z,24.07
2022-10-13T03:51:46.633Z,23.50
2022-10-13T03:54:14.195Z,23.13
2022-10-13T03:56:42.415Z,19.20
2022-10-13T03:59:13.237Z,19.50
2022-10-13T04:01:40.597Z,21.30
2022-10-13T04:04:09.225Z,18.97
2022-10-13T04:06:36.115Z,28.03
2022-10-13T04:09:03.765Z,22.90
2022-10-13T04:11:30.843Z,20.13
2022-10-13T04:13:58.771Z,20.77
2022-10-13T04:16:29.391Z,22.27
2022-10-13T04:19:03.115Z,22.13
2022-10-13T04:21:33.303Z,29.67
2022-10-13T04:24:01.605Z,20.10
2022-10-13T04:26:32.036Z,25.07
2022-10-13T04:29:00.007Z,27.33
2022-10-13T04:31:29.519Z,20.23
2022-10-13T04:33:56.896Z,21.47
2022-10-13T04:36:24.525Z,24.70
2022-10-13T04:38:53.940Z,29.37
2022-10-13T04:41:21.061Z,24.43
2022-10-13T04:43:50.005Z,28.07
2022-10-13T04:46:27.348Z,24.70
2022-10-13T04:48:55.492Z,23.67
2022-10-13T04:51:25.011Z,25.53
2022-10-13T04:54:01.111Z,30.50
2022-10-13T04:56:28.825Z,25.27
2022-10-13T04:58:55.840Z,25.40
2022-10-13T05:01:24.818Z,25.93
2022-10-13T05:03:59.867Z,29.07
2022-10-13T05:06:30.214Z,28.73
2022-10-13T05:08:57.739Z,31.33
2022-10-13T05:11:29.251Z,30.67
2022-10-13T05:13:57.409Z,30.70
2022-10-13T05:16:25.454Z,29.40
2022-10-13T05:18:54.757Z,25.47
2022-10-13T05:21:28.348Z,27.67
2022-10-13T05:23:57.309Z,33.93
2022-10-13T05:26:29.058Z,30.40
2022-10-13T05:29:01.269Z,28.67
2022-10-13T05:31:30.274Z,29.77
2022-10-13T05:33:57.370Z,30.37
2022-10-13T05:36:31.434Z,32.30
2022-10-13T05:39:03.219Z,34.20
2022-10-13T05:41:30.781Z,33.10
2022-10-13T05:44:03.351Z,28.40
2022-10-13T05:46:30.503Z,31.33
2022-10-13T05:48:57.406Z,30.23
2022-10-13T05:51:38.823Z,32.77
2022-10-13T05:54:30.849Z,44.47
2022-10-13T05:57:04.167Z,29.77
2022-10-13T05:59:38.060Z,35.33
2022-10-13T06:02:08.526Z,36.97
2022-10-13T06:04:44.739Z,37.63
2022-10-13T06:07:12.341Z,34.43
2022-10-13T06:09:41.200Z,38.20
2022-10-13T06:12:09.405Z,29.93
2022-10-13T06:14:36.681Z,32.80
2022-10-13T06:17:03.843Z,32.77
2022-10-13T06:19:30.773Z,32.07
2022-10-13T06:22:02.577Z,35.70
2022-10-13T06:24:30.526Z,28.83
2022-10-13T06:26:57.511Z,31.30
2022-10-13T06:29:24.432Z,31.53
2022-10-13T06:31:51.414Z,27.97
2022-10-13T06:34:18.337Z,32.77
2022-10-13T06:36:45.306Z,28.50
2022-10-13T06:39:12.253Z,29.80
2022-10-13T06:41:39.168Z,29.80
2022-10-13T06:44:06.052Z,28.20
2022-10-13T06:46:32.978Z,30.73
2022-10-13T06:49:00.007Z,38.97
2022-10-13T06:51:27.019Z,32.33
2022-10-13T06:53:56.959Z,32.47
2022-10-13T06:56:24.064Z,30.17
2022-10-13T06:58:51.062Z,31.97
2022-10-13T07:01:18.021Z,33.40
2022-10-13T07:03:45.023Z,34.03
2022-10-13T07:06:11.997Z,30.57
2022-10-13T07:08:38.889Z,29.27
2022-10-13T07:11:16.438Z,31.43
2022-10-13T07:13:46.603Z,27.20
2022-10-13T07:16:15.475Z,26.83
2022-10-13T07:18:42.525Z,28.53
2022-10-13T07:21:10.149Z,25.73
2022-10-13T07:23:37.096Z,30.13
2022-10-13T07:26:08.967Z,28.80
2022-10-13T07:28:35.954Z,29.13
2022-10-13T07:31:13.716Z,30.13
2022-10-13T07:33:44.537Z,26.67
2022-10-13T07:36:12.623Z,28.40
2022-10-13T07:38:39.963Z,28.17
2022-10-13T07:41:10.345Z,30.13
2022-10-13T07:43:37.428Z,26.70
2022-10-13T07:46:05.713Z,34.17
2022-10-13T07:48:33.802Z,24.50
2022-10-13T07:51:05.942Z,22.57
2022-10-13T07:53:33.076Z,25.27
2022-10-13T07:56:05.894Z,28.47
2022-10-13T07:58:34.203Z,26.20
2022-10-13T08:01:02.492Z,30.07
2022-10-13T08:03:30.471Z,27.17
2022-10-13T08:06:00.346Z,25.83
2022-10-13T08:08:27.972Z,26.70
2022-10-13T08:10:56.095Z,24.40
2022-10-13T08:13:23.006Z,27.80
2022-10-13T08:15:49.981Z,22.80
2022-10-13T08:18:16.965Z,26.63
2022-10-13T08:20:45.858Z,22.27
2022-10-13T08:23:13.925Z,28.43
2022-10-13T08:25:43.400Z,21.87
2022-10-13T08:28:25.862Z,22.10
2022-10-13T08:30:53.990Z,20.87
2022-10-13T08:33:21.127Z,20.93
2022-10-13T08:35:48.055Z,23.43
2022-10-13T08:38:15.020Z,24.57
2022-10-13T08:40:48.780Z,24.20
2022-10-13T08:43:20.290Z,23.67
2022-10-13T08:45:51.356Z,24.93
2022-10-13T08:48:44.594Z,25.67
2022-10-13T08:51:15.973Z,25.53
2022-10-13T08:53:46.325Z,21.80
2022-10-13T08:56:31.220Z,23.70
2022-10-13T08:58:58.493Z,21.35
2022-10-13T09:01:36.827Z,23.17
2022-10-13T09:04:49.377Z,23.35
2022-10-13T09:07:22.500Z,23.70
2022-10-13T09:09:54.558Z,29.10
2022-10-13T09:12:25.779Z,25.67
2022-10-13T09:15:05.747Z,22.73
2022-10-13T09:17:34.486Z,21.87
2022-10-13T09:20:25.639Z,24.87
2022-10-13T09:23:20.801Z,25.60
2022-10-13T09:25:52.689Z,22.20
2022-10-13T09:28:26.799Z,26.00
2022-10-13T09:31:23.540Z,27.03
2022-10-13T09:34:14.440Z,23.20
2022-10-13T09:36:59.073Z,21.53
2022-10-13T09:39:26.798Z,23.43
2022-10-13T09:42:29.515Z,24.97
2022-10-13T09:45:15.733Z,32.40
2022-10-13T09:47:52.318Z,23.50
2022-10-13T09:50:32.139Z,26.40
2022-10-13T09:53:37.302Z,29.00
2022-10-13T09:56:31.300Z,30.87
2022-10-13T09:59:27.744Z,27.40
2022-10-13T10:01:56.309Z,28.80
2022-10-13T10:04:32.038Z,34.07
2022-10-13T10:06:58.940Z,27.63
2022-10-13T10:09:50.617Z,31.70
2022-10-13T10:12:24.193Z,31.30
2022-10-13T10:14:54.640Z,36.37
2022-10-13T10:17:45.037Z,34.90
2022-10-13T10:21:02.547Z,33.57
2022-10-13T10:23:54.652Z,31.10
2022-10-13T10:26:40.894Z,30.57
2022-10-13T10:30:04.737Z,36.17
2022-10-13T10:32:55.035Z,34.23
2022-10-13T10:35:37.444Z,31.70
2022-10-13T10:38:38.540Z,36.77
2022-10-13T10:41:51.030Z,33.83
2022-10-13T10:44:31.549Z,36.47
2022-10-13T10:47:11.288Z,35.53
2022-10-13T10:49:39.525Z,37.70
2022-10-13T10:52:11.540Z,35.67
2022-10-13T10:54:54.026Z,33.30
2022-10-13T10:57:47.185Z,37.00
2022-10-13T11:00:19.888Z,38.17
2022-10-13T11:03:02.346Z,38.23
2022-10-13T11:05:57.144Z,38.67
2022-10-13T11:08:49.316Z,32.10
2022-10-13T11:11:29.254Z,39.23
2022-10-13T11:14:05.806Z,34.13
2022-10-13T11:16:38.143Z,31.27
2022-10-13T11:19:37.988Z,30.40
2022-10-13T11:22:05.432Z,36.30
2022-10-13T11:24:41.197Z,32.23
2022-10-13T11:27:08.012Z,36.93
2022-10-13T11:29:54.714Z,36.07
2022-10-13T11:32:30.478Z,42.30
2022-10-13T11:35:10.720Z,33.30
2022-10-13T11:38:07.426Z,39.73
2022-10-13T11:40:59.136Z,32.03
2022-10-13T11:43:51.776Z,33.67
2022-10-13T11:47:12.187Z,30.13
2022-10-13T11:49:47.857Z,36.33
2022-10-13T11:52:29.363Z,31.37
2022-10-13T11:55:13.953Z,28.43
2022-10-13T11:57:40.912Z,29.60
2022-10-13T12:00:18.286Z,30.30
2022-10-13T12:02:51.003Z,29.87
2022-10-13T12:05:28.295Z,31.50
2022-10-13T12:08:04.012Z,23.10
2022-10-13T12:10:35.515Z,27.97
2022-10-13T12:13:04.455Z,25.17
2022-10-13T12:15:42.489Z,25.17
2022-10-13T12:18:34.046Z,23.75
2022-10-13T12:21:11.639Z,26.27
2022-10-13T12:23:39.344Z,24.02
2022-10-13T12:26:07.056Z,23.63
2022-10-13T12:29:01.195Z,25.80
2022-10-13T12:31:49.904Z,25.87
2022-10-13T12:34:28.967Z,26.47
2022-10-13T12:37:21.725Z,24.23
2022-10-13T12:39:49.391Z,22.97
2022-10-13T12:42:16.427Z,27.23
2022-10-13T12:44:44.927Z,27.90
2022-10-13T12:47:44.037Z,29.93
2022-10-13T12:50:29.983Z,29.37
2022-10-13T12:53:08.749Z,28.83
2022-10-13T12:55:59.243Z,30.13
2022-10-13T12:58:32.910Z,27.80
2022-10-13T13:01:14.766Z,29.60
2022-10-13T13:03:44.013Z,32.37
2022-10-13T13:06:37.408Z,32.50
2022-10-13T13:09:35.027Z,30.67
2022-10-13T13:12:10.815Z,27.23
2022-10-13T13:14:49.348Z,25.70
2022-10-13T13:17:33.003Z,29.57
2022-10-13T13:20:27.055Z,29.70
2022-10-13T13:22:55.012Z,30.23
2022-10-13T13:25:22.216Z,28.63
2022-10-13T13:27:49.374Z,28.57
2022-10-13T13:30:19.928Z,31.23
2022-10-13T13:32:47.370Z,29.45
2022-10-13T13:35:14.762Z,45.67
2022-10-13T13:37:48.915Z,31.97
2022-10-13T13:40:20.279Z,32.03
2022-10-13T13:42:47.215Z,31.33
2022-10-13T13:45:16.176Z,30.33
2022-10-13T13:47:44.908Z,27.45
2022-10-13T13:50:21.141Z,27.45
2022-10-13T13:52:48.268Z,30.00
2022-10-13T13:55:15.337Z,30.35
2022-10-13T13:57:43.749Z,26.63
2022-10-13T14:00:15.254Z,27.13
2022-10-13T14:02:43.971Z,33.25
2022-10-13T14:05:12.434Z,34.00
2022-10-13T14:07:40.684Z,31.17
2022-10-13T14:10:09.556Z,32.38
2022-10-13T14:12:36.657Z,30.00
2022-10-13T14:15:04.768Z,33.13
2022-10-13T14:17:31.666Z,33.58
2022-10-13T14:19:58.565Z,32.70
2022-10-13T14:22:25.800Z,31.48
2022-10-13T14:24:53.179Z,31.40
2022-10-13T14:27:20.130Z,29.88
2022-10-13T14:29:47.287Z,32.33
2022-10-13T14:32:14.307Z,35.73
2022-10-13T14:34:41.221Z,36.30
2022-10-13T14:37:08.178Z,29.27
2022-10-13T14:39:35.093Z,32.80
2022-10-13T14:42:02.058Z,27.07
2022-10-13T14:44:29.007Z,26.63
2022-10-13T14:46:56.113Z,28.85
2022-10-13T14:49:23.178Z,24.50
2022-10-13T14:51:50.128Z,26.58
2022-10-13T14:54:17.125Z,28.35
2022-10-13T14:56:44.827Z,18.50
2022-10-13T14:59:12.588Z,16.02
2022-10-13T15:01:43.467Z,21.73
2022-10-13T15:04:10.949Z,14.52
2022-10-13T15:06:41.521Z,14.60
2022-10-13T15:11:41.827Z,13.90
2022-10-13T15:14:09.898Z,18.13
2022-10-13T15:16:37.925Z,13.13
2022-10-13T15:19:05.461Z,14.25
2022-10-13T15:21:32.517Z,11.00
2022-10-13T15:23:59.413Z,11.77
2022-10-13T15:26:26.334Z,14.37
2022-10-13T15:28:54.122Z,14.93
2022-10-13T15:31:22.962Z,14.13
2022-10-13T15:33:53.253Z,9.23
2022-10-13T15:36:22.467Z,10.97
2022-10-13T15:38:49.645Z,13.77
2022-10-13T15:41:16.723Z,12.10
2022-10-13T15:43:43.763Z,9.80
2022-10-13T15:46:21.519Z,11.23
2022-10-13T15:48:53.389Z,11.27
2022-10-13T15:51:24.038Z,10.20
2022-10-13T15:53:51.221Z,9.17
2022-10-13T15:56:18.515Z,10.47
2022-10-13T15:58:45.860Z,11.13
2022-10-13T16:01:14.313Z,13.13
2022-10-13T16:03:42.439Z,15.30
2022-10-13T16:06:12.422Z,16.07
2022-10-13T16:08:41.393Z,11.32
2022-10-13T16:11:14.877Z,14.10
2022-10-13T16:13:46.128Z,13.55
2022-10-13T16:16:13.178Z,11.82
2022-10-13T16:18:41.221Z,13.63
2022-10-13T16:21:18.839Z,18.70
2022-10-13T16:23:47.824Z,12.20
2022-10-13T16:26:17.391Z,13.20
2022-10-13T16:28:45.769Z,14.55
2022-10-13T16:31:15.403Z,16.77
2022-10-13T16:33:44.120Z,18.93
2022-10-13T16:36:15.392Z,20.15
2022-10-13T16:38:44.102Z,19.02
2022-10-13T16:41:15.786Z,17.17
2022-10-13T16:43:44.901Z,15.60
2022-10-13T16:46:14.476Z,16.67
2022-10-13T16:48:43.078Z,20.50
2022-10-13T16:51:22.800Z,17.13
2022-10-13T16:53:52.663Z,18.93
2022-10-13T16:56:23.858Z,14.00
2022-10-13T16:58:57.659Z,14.63
2022-10-13T17:01:29.660Z,16.73
2022-10-13T17:03:57.680Z,18.88
2022-10-13T17:06:27.816Z,18.15
2022-10-13T17:08:57.598Z,16.73
2022-10-13T17:11:29.947Z,17.87
2022-10-13T17:13:59.414Z,16.40
2022-10-13T17:16:27.079Z,16.90
2022-10-13T17:18:55.069Z,16.23
2022-10-13T17:21:22.268Z,18.75
2022-10-13T17:23:49.825Z,18.17
2022-10-13T17:26:18.480Z,15.97
2022-10-13T17:28:45.885Z,18.07
2022-10-13T17:31:23.106Z,23.48
2022-10-13T17:33:51.437Z,24.23
2022-10-13T17:36:25.427Z,25.67
2022-10-13T17:38:55.120Z,25.13
2022-10-13T17:41:23.829Z,30.90
2022-10-13T17:43:52.141Z,30.97
2022-10-13T17:46:36.157Z,34.33
2022-10-13T17:49:05.146Z,39.45
2022-10-13T17:51:32.069Z,38.03
2022-10-13T17:54:00.539Z,37.67
2022-10-13T17:56:28.232Z,36.58
2022-10-13T17:58:55.460Z,38.37
2022-10-13T18:01:29.179Z,34.70
2022-10-13T18:04:00.176Z,40.83
2022-10-13T18:06:38.463Z,35.67
2022-10-13T18:09:18.757Z,37.17
2022-10-13T18:11:50.653Z,41.23
2022-10-13T18:14:24.689Z,44.80
2022-10-13T18:16:52.815Z,48.80
2022-10-13T18:19:21.556Z,48.07
2022-10-13T18:21:49.312Z,44.20
2022-10-13T18:24:16.644Z,45.70
2022-10-13T18:26:43.633Z,49.27
2022-10-13T18:29:14.099Z,51.63
2022-10-13T18:31:41.874Z,47.50
2022-10-13T18:34:14.250Z,49.65
2022-10-13T18:36:50.755Z,44.28
2022-10-13T18:39:27.039Z,45.47
2022-10-13T18:41:56.317Z,44.47
2022-10-13T18:44:24.148Z,43.20
2022-10-13T18:46:52.986Z,39.03
2022-10-13T18:49:30.854Z,41.60
2022-10-13T18:51:59.782Z,40.67
2022-10-13T18:54:28.277Z,41.50
2022-10-13T18:56:55.270Z,41.47
2022-10-13T18:59:22.263Z,37.50
2022-10-13T19:01:49.983Z,38.47
2022-10-13T19:04:19.265Z,39.05
2022-10-13T19:06:46.537Z,35.57
2022-10-13T19:09:16.012Z,38.35
2022-10-13T19:11:43.011Z,44.25
2022-10-13T19:14:13.636Z,46.10
2022-10-13T19:16:43.737Z,47.47
2022-10-13T19:19:11.427Z,44.80
2022-10-13T19:21:39.332Z,49.40
2022-10-13T19:24:07.823Z,41.40
2022-10-13T19:26:36.822Z,44.13
2022-10-13T19:29:08.639Z,48.33
2022-10-13T19:31:37.455Z,49.27
2022-10-13T19:34:04.813Z,46.30
2022-10-13T19:36:37.588Z,40.07
2022-10-13T19:39:21.725Z,45.70
2022-10-13T19:41:51.457Z,46.07
2022-10-13T19:44:20.150Z,49.17
2022-10-13T19:46:48.320Z,43.87
2022-10-13T19:49:18.429Z,43.13
2022-10-13T19:51:47.148Z,38.47
2022-10-13T19:54:14.814Z,48.17
2022-10-13T19:56:41.727Z,40.87
2022-10-13T19:59:08.827Z,38.37
2022-10-13T20:01:40.026Z,39.77
2022-10-13T20:04:10.737Z,38.50
2022-10-13T20:06:37.827Z,39.37
2022-10-13T20:09:05.868Z,39.90
2022-10-13T20:11:32.846Z,44.77
2022-10-13T20:13:59.833Z,47.23
2022-10-13T20:16:26.859Z,42.97
2022-10-13T20:19:00.270Z,40.63
2022-10-13T20:21:28.266Z,42.03
2022-10-13T20:23:56.229Z,47.73
2022-10-13T20:26:24.824Z,40.33
2022-10-13T20:28:53.391Z,39.42
2022-10-13T20:31:22.020Z,39.47
2022-10-13T20:33:56.456Z,37.07
2022-10-13T20:36:25.557Z,40.53
2022-10-13T20:38:52.815Z,38.97
2022-10-13T20:41:29.518Z,38.63
2022-10-13T20:44:01.413Z,40.65
2022-10-13T20:46:28.345Z,37.00
2022-10-13T20:49:12.985Z,40.03
2022-10-13T20:51:42.700Z,36.93
2022-10-13T20:54:14.451Z,40.53
2022-10-13T20:56:41.841Z,41.63
2022-10-13T20:59:12.532Z,41.55
2022-10-13T21:01:39.692Z,42.20
2022-10-13T21:04:07.100Z,48.83
2022-10-13T21:06:35.697Z,44.58
2022-10-13T21:09:04.618Z,43.97
2022-10-13T21:11:31.719Z,41.95
2022-10-13T21:13:58.764Z,41.10
2022-10-13T21:16:29.174Z,39.97
2022-10-13T21:18:57.929Z,44.50
2022-10-13T21:21:31.769Z,46.58
2022-10-13T21:24:06.117Z,48.60
2022-10-13T21:26:33.674Z,42.63
2022-10-13T21:29:02.318Z,46.17
2022-10-13T21:31:30.038Z,44.15
2022-10-13T21:33:57.781Z,40.53
2022-10-13T21:36:32.473Z,40.03
2022-10-13T21:39:03.854Z,40.30
2022-10-13T21:41:31.286Z,39.10
2022-10-13T21:43:58.465Z,38.50
2022-10-13T21:46:31.176Z,40.20
2022-10-13T21:49:01.144Z,41.22
2022-10-13T21:51:34.669Z,40.17
2022-10-13T21:54:06.036Z,37.45
2022-10-13T21:56:34.040Z,35.75
2022-10-13T21:59:01.741Z,37.38
2022-10-13T22:01:28.881Z,35.75
2022-10-13T22:03:58.340Z,39.27
2022-10-13T22:06:26.531Z,36.50
2022-10-13T22:08:56.240Z,37.27
2022-10-13T22:11:26.502Z,36.37
2022-10-13T22:13:53.508Z,37.63
2022-10-13T22:16:24.635Z,35.07
2022-10-13T22:18:53.458Z,33.37
2022-10-13T22:21:27.341Z,34.67
2022-10-13T22:24:05.275Z,33.77
2022-10-13T22:26:35.624Z,34.47
2022-10-13T22:29:06.097Z,36.72
2022-10-13T22:31:33.339Z,41.80
2022-10-13T22:34:01.687Z,35.90
2022-10-13T22:36:30.892Z,38.03
2022-10-13T22:39:01.231Z,42.27
2022-10-13T22:41:28.686Z,41.28
2022-10-13T22:43:57.964Z,44.50
2022-10-13T22:46:29.712Z,42.43
2022-10-13T22:48:58.096Z,37.43
2022-10-13T22:51:28.453Z,43.23
2022-10-13T22:53:57.730Z,37.97
2022-10-13T22:56:28.243Z,38.42
2022-10-13T22:59:04.937Z,36.60
2022-10-13T23:01:31.929Z,40.42
2022-10-13T23:03:59.777Z,37.78
2022-10-13T23:06:31.420Z,39.67
2022-10-13T23:09:04.554Z,39.20
2022-10-13T23:11:31.818Z,41.17
2022-10-13T23:13:58.758Z,40.75
2022-10-13T23:16:26.613Z,42.57
2022-10-13T23:18:54.458Z,42.53
2022-10-13T23:21:23.477Z,47.87
2022-10-13T23:23:59.858Z,47.63
2022-10-13T23:26:27.556Z,43.03
2022-10-13T23:28:56.780Z,46.47
2022-10-13T23:31:24.605Z,43.72
2022-10-13T23:33:51.883Z,51.80
2022-10-13T23:36:23.398Z,46.37
2022-10-13T23:38:56.015Z,46.03
2022-10-13T23:41:23.629Z,46.73
2022-10-13T23:43:50.646Z,49.13
2022-10-13T23:46:17.613Z,49.70
2022-10-13T23:48:44.562Z,47.43
2022-10-13T23:51:16.466Z,49.10
2022-10-13T23:53:43.807Z,46.83
2022-10-13T23:56:12.927Z,45.80
2022-10-13T23:58:42.610Z,47.17
